Time;durP1;ratioP1;P1;durP2;ratioP2;P2;SDS_P1;SDS_P2;PMS_P1;PMS_P2;Temp;Humidity;BMP_temperature;BMP_pressure;BME280_temperature;BME280_humidity;BME280_pressure;Samples;Min_cycle;Max_cycle;Signal;HPM_P1;HPM_P2
2022/11/29 00:00:52;;;;;;;57.00;28.35;;;-2.20;99.90;;;;;;5053444;28;20019;-81
2022/11/29 00:03:17;;;;;;;55.90;28.63;;;-2.20;99.90;;;;;;5053542;28;20036;-80
2022/11/29 00:05:43;;;;;;;54.15;28.23;;;-2.20;99.90;;;;;;5053625;28;20017;-81
2022/11/29 00:08:09;;;;;;;56.90;28.55;;;-2.20;99.90;;;;;;5053288;28;20568;-81
2022/11/29 00:10:37;;;;;;;49.80;28.23;;;-2.20;99.90;;;;;;5053189;28;20421;-80
2022/11/29 00:13:03;;;;;;;57.95;27.27;;;-2.20;99.90;;;;;;5053686;28;20033;-82
2022/11/29 00:15:29;;;;;;;58.95;29.83;;;-2.20;99.90;;;;;;5054959;28;20021;-82
2022/11/29 00:17:55;;;;;;;63.97;28.70;;;-2.20;99.90;;;;;;5053519;28;20390;-80
2022/11/29 00:20:20;;;;;;;55.75;27.92;;;-2.20;99.90;;;;;;5053027;28;20079;-81
2022/11/29 00:22:46;;;;;;;59.90;27.58;;;-2.20;99.90;;;;;;5055448;28;20025;-80
2022/11/29 00:25:11;;;;;;;60.75;27.95;;;-2.20;99.90;;;;;;5054902;28;20536;-80
2022/11/29 00:27:37;;;;;;;66.55;31.77;;;-2.20;99.90;;;;;;5055378;28;20517;-81
2022/11/29 00:30:03;;;;;;;58.25;30.73;;;-2.20;99.90;;;;;;5053961;28;20131;-81
2022/11/29 00:32:29;;;;;;;59.10;29.58;;;-2.20;99.90;;;;;;5055189;28;20017;-80
2022/11/29 00:34:54;;;;;;;61.00;30.75;;;-2.20;99.90;;;;;;5055102;28;20486;-80
2022/11/29 00:37:20;;;;;;;61.90;31.15;;;-2.20;99.90;;;;;;5054947;28;20031;-80
2022/11/29 00:39:46;;;;;;;59.28;28.13;;;-2.20;99.90;;;;;;5054004;28;20476;-81
2022/11/29 00:42:11;;;;;;;51.58;28.90;;;-2.20;99.90;;;;;;5052654;28;20040;-80
2022/11/29 00:44:37;;;;;;;57.83;29.20;;;-2.30;99.90;;;;;;5053831;28;20111;-80
2022/11/29 00:47:02;;;;;;;54.60;27.45;;;-2.20;99.90;;;;;;5053828;28;20044;-80
2022/11/29 00:49:28;;;;;;;60.42;28.35;;;-2.20;99.90;;;;;;5053928;28;20112;-82
2022/11/29 00:51:53;;;;;;;57.10;28.60;;;-2.20;99.90;;;;;;5055379;28;20021;-82
2022/11/29 00:54:19;;;;;;;56.30;28.77;;;-2.30;99.90;;;;;;5055732;28;20021;-80
2022/11/29 00:56:45;;;;;;;55.55;30.10;;;-2.30;99.90;;;;;;5053040;28;20131;-82
2022/11/29 00:59:10;;;;;;;57.08;27.77;;;-2.30;99.90;;;;;;5053763;28;20029;-82
2022/11/29 01:01:36;;;;;;;58.50;27.60;;;-2.30;99.90;;;;;;5055256;28;20021;-83
2022/11/29 01:04:02;;;;;;;53.33;26.48;;;-2.30;99.90;;;;;;5052534;28;20021;-81
2022/11/29 01:06:27;;;;;;;58.47;29.45;;;-2.30;99.90;;;;;;5053440;28;20029;-81
2022/11/29 01:08:53;;;;;;;59.63;30.13;;;-2.30;99.90;;;;;;5053452;28;20051;-80
2022/11/29 01:11:25;;;;;;;55.33;28.27;;;-2.30;99.90;;;;;;5053348;28;20032;-81
2022/11/29 01:13:54;;;;;;;56.22;27.23;;;-2.30;99.90;;;;;;5052812;28;20028;-80
2022/11/29 01:16:21;;;;;;;59.08;28.20;;;-2.30;99.90;;;;;;5052034;28;20029;-81
2022/11/29 01:18:47;;;;;;;54.95;29.00;;;-2.30;99.90;;;;;;5053566;28;20035;-81
2022/11/29 01:21:15;;;;;;;60.15;29.27;;;-2.30;99.90;;;;;;5051441;28;20131;-81
2022/11/29 01:23:42;;;;;;;69.20;30.38;;;-2.30;99.90;;;;;;5052122;28;20047;-81
2022/11/29 01:26:20;;;;;;;54.88;29.88;;;-2.40;99.90;;;;;;5051874;28;20368;-79
2022/11/29 01:28:48;;;;;;;66.15;29.92;;;-2.40;99.90;;;;;;5051952;28;20540;-80
2022/11/29 01:31:22;;;;;;;54.92;28.98;;;-2.40;99.90;;;;;;5051981;28;20024;-80
2022/11/29 01:33:52;;;;;;;65.70;30.27;;;-2.50;99.90;;;;;;5052022;28;20108;-80
2022/11/29 01:36:18;;;;;;;63.65;30.52;;;-2.50;99.90;;;;;;5053042;28;20021;-80
2022/11/29 01:38:43;;;;;;;57.50;29.38;;;-2.50;99.90;;;;;;5051894;28;20017;-80
2022/11/29 01:41:15;;;;;;;71.38;31.60;;;-2.50;99.90;;;;;;5051653;28;20434;-81
2022/11/29 01:44:03;;;;;;;65.78;31.65;;;-2.60;99.90;;;;;;5052969;28;20556;-80
2022/11/29 01:46:34;;;;;;;62.35;31.73;;;-2.60;99.90;;;;;;5054866;28;20398;-80
2022/11/29 01:49:24;;;;;;;65.28;30.55;;;-2.60;99.90;;;;;;5051842;28;20025;-81
2022/11/29 01:51:53;;;;;;;66.38;30.77;;;-2.60;99.90;;;;;;5051528;28;20025;-80
2022/11/29 01:54:19;;;;;;;64.90;31.23;;;-2.70;99.90;;;;;;5051562;28;20094;-82
2022/11/29 01:56:47;;;;;;;64.70;30.42;;;-2.70;99.90;;;;;;5052792;28;20108;-81
2022/11/29 01:59:17;;;;;;;65.82;30.90;;;-2.70;99.90;;;;;;5051683;28;20585;-81
2022/11/29 02:01:42;;;;;;;55.50;28.20;;;-2.70;99.90;;;;;;5053121;28;20021;-82
2022/11/29 02:04:09;;;;;;;62.70;31.40;;;-2.70;99.90;;;;;;5073592;28;20371;-82
2022/11/29 02:06:35;;;;;;;63.63;34.00;;;-2.70;99.90;;;;;;5074335;28;20470;-80
2022/11/29 02:09:02;;;;;;;66.85;32.13;;;-2.80;99.90;;;;;;5072807;28;20024;-81
2022/11/29 02:11:54;;;;;;;68.10;32.58;;;-2.80;99.90;;;;;;5071214;28;20075;-80
2022/11/29 02:15:04;;;;;;;60.08;31.25;;;-2.90;99.90;;;;;;5071424;28;20556;-82
2022/11/29 02:17:50;;;;;;;65.80;30.13;;;-2.90;99.90;;;;;;5067285;28;20037;-82
2022/11/29 02:20:50;;;;;;;60.67;33.20;;;-3.00;99.90;;;;;;5072766;28;20393;-79
2022/11/29 02:23:47;;;;;;;62.67;30.67;;;-3.00;99.90;;;;;;5053488;28;20033;-80
2022/11/29 02:26:37;;;;;;;59.30;27.45;;;-3.00;99.90;;;;;;5051712;28;20060;-80
2022/11/29 02:29:21;;;;;;;59.08;32.05;;;-3.00;99.90;;;;;;5051481;28;20072;-81
2022/11/29 02:31:47;;;;;;;67.72;28.83;;;-3.10;99.90;;;;;;5051908;28;20491;-79
2022/11/29 02:34:24;;;;;;;60.72;31.80;;;-3.10;99.90;;;;;;5052944;28;20104;-81
2022/11/29 02:37:21;;;;;;;72.53;32.53;;;-3.10;99.90;;;;;;5052759;28;20027;-81
2022/11/29 02:40:08;;;;;;;64.55;30.92;;;-3.20;99.90;;;;;;5051263;28;20025;-79
2022/11/29 02:42:49;;;;;;;69.22;30.50;;;-3.20;99.90;;;;;;5052517;28;20044;-80
2022/11/29 02:45:35;;;;;;;61.40;28.80;;;-3.20;99.90;;;;;;5051277;28;20068;-79
2022/11/29 02:48:26;;;;;;;67.03;29.33;;;-3.10;99.90;;;;;;5054420;28;20036;-81
2022/11/29 02:51:04;;;;;;;77.93;32.45;;;-3.10;99.90;;;;;;5056124;28;20407;-79
2022/11/29 02:53:54;;;;;;;65.13;30.50;;;-3.10;99.90;;;;;;5054695;28;20025;-81
2022/11/29 02:56:41;;;;;;;89.28;33.78;;;-3.10;99.90;;;;;;5055910;28;20029;-81
2022/11/29 02:59:26;;;;;;;88.13;31.55;;;-3.20;99.90;;;;;;5054456;28;20032;-81
2022/11/29 03:01:57;;;;;;;80.88;30.08;;;-3.10;99.90;;;;;;5055770;28;20025;-80
2022/11/29 03:04:57;;;;;;;75.50;28.52;;;-3.20;99.90;;;;;;5074372;28;20075;-80
2022/11/29 03:07:44;;;;;;;76.97;28.63;;;-3.20;99.90;;;;;;5065386;28;20451;-81
2022/11/29 03:10:09;;;;;;;72.43;27.02;;;-3.30;99.90;;;;;;5054482;28;20021;-81
2022/11/29 03:12:43;;;;;;;83.00;30.35;;;-3.30;99.90;;;;;;5054184;28;20395;-80
2022/11/29 03:15:14;;;;;;;83.43;30.25;;;-3.40;99.90;;;;;;5055558;28;20024;-81
2022/11/29 03:18:02;;;;;;;88.88;27.50;;;-3.40;99.90;;;;;;5054210;28;20033;-81
2022/11/29 03:20:46;;;;;;;72.25;27.55;;;-3.40;99.90;;;;;;5054143;28;20025;-81
2022/11/29 03:23:41;;;;;;;72.25;29.77;;;-3.40;99.90;;;;;;5053998;28;20072;-81
2022/11/29 03:26:12;;;;;;;83.25;32.28;;;-3.50;99.90;;;;;;5054822;28;20033;-82
2022/11/29 03:28:51;;;;;;;76.93;26.40;;;-3.60;99.90;;;;;;5055219;28;20029;-80
2022/11/29 03:31:33;;;;;;;82.60;27.42;;;-3.60;99.90;;;;;;5054178;28;20025;-82
2022/11/29 03:34:10;;;;;;;102.03;30.80;;;-3.60;99.90;;;;;;5057485;28;20101;-82
2022/11/29 03:36:40;;;;;;;78.60;28.33;;;-3.60;99.90;;;;;;5055178;28;20021;-79
2022/11/29 03:39:22;;;;;;;85.57;28.90;;;-3.70;99.90;;;;;;5056553;28;20090;-79
2022/11/29 03:42:02;;;;;;;76.03;28.15;;;-3.70;99.90;;;;;;5056479;28;20029;-80
2022/11/29 03:44:37;;;;;;;67.72;26.50;;;-3.70;99.90;;;;;;5053628;28;20398;-81
2022/11/29 03:47:11;;;;;;;70.25;26.60;;;-3.70;99.90;;;;;;5054238;28;20037;-81
2022/11/29 03:49:52;;;;;;;62.72;25.33;;;-3.80;99.90;;;;;;5054851;28;20063;-82
2022/11/29 03:52:31;;;;;;;83.28;29.08;;;-3.80;99.90;;;;;;5054981;28;20036;-82
2022/11/29 03:55:06;;;;;;;72.95;26.95;;;-3.80;99.90;;;;;;5054953;28;20390;-80
2022/11/29 03:58:06;;;;;;;81.88;30.42;;;-3.80;99.90;;;;;;5053281;28;20036;-81
2022/11/29 04:00:59;;;;;;;69.93;28.13;;;-3.80;99.90;;;;;;5052723;28;20029;-80
2022/11/29 04:03:27;;;;;;;83.75;30.73;;;-3.80;99.90;;;;;;5053274;28;20482;-80
2022/11/29 04:06:12;;;;;;;86.40;29.55;;;-3.80;99.90;;;;;;5054683;28;20541;-81
2022/11/29 04:08:43;;;;;;;79.45;30.38;;;-3.80;99.90;;;;;;5054365;28;20128;-80
2022/11/29 04:11:35;;;;;;;120.63;34.90;;;-3.70;99.90;;;;;;5054601;28;20433;-80
2022/11/29 04:14:46;;;;;;;106.28;33.33;;;-3.70;99.90;;;;;;5053093;28;20025;-79
2022/11/29 04:17:40;;;;;;;98.82;31.83;;;-3.80;99.90;;;;;;5055109;28;20029;-79
2022/11/29 04:20:14;;;;;;;99.05;31.73;;;-3.70;99.90;;;;;;5054681;28;20479;-82
2022/11/29 04:22:59;;;;;;;91.70;31.38;;;-3.80;99.90;;;;;;5055129;28;20024;-81
2022/11/29 04:25:47;;;;;;;93.60;31.40;;;-3.70;99.90;;;;;;5052934;28;20024;-80
2022/11/29 04:28:22;;;;;;;84.38;31.45;;;-3.70;99.90;;;;;;5052840;28;20120;-80
2022/11/29 04:31:17;;;;;;;88.03;30.02;;;-3.80;99.90;;;;;;5053486;28;20098;-80
2022/11/29 04:34:02;;;;;;;76.88;28.58;;;-3.80;99.90;;;;;;5052830;28;20032;-80
2022/11/29 04:36:56;;;;;;;68.50;28.73;;;-3.80;99.90;;;;;;5045882;28;20021;-80
2022/11/29 04:39:47;;;;;;;64.75;29.52;;;-3.80;99.90;;;;;;5052502;28;20025;-79
2022/11/29 04:42:31;;;;;;;68.28;27.65;;;-3.80;99.90;;;;;;5052779;28;20504;-81
2022/11/29 04:45:32;;;;;;;64.45;25.77;;;-3.80;99.90;;;;;;5053585;28;20499;-81
2022/11/29 04:48:11;;;;;;;71.72;25.77;;;-3.90;99.90;;;;;;5052557;28;20452;-79
2022/11/29 04:50:50;;;;;;;66.70;26.63;;;-3.90;99.90;;;;;;5053757;28;20517;-80
2022/11/29 04:53:41;;;;;;;75.78;26.00;;;-4.00;99.90;;;;;;5052444;28;20116;-80
2022/11/29 04:56:31;;;;;;;65.43;24.95;;;-4.00;99.90;;;;;;5053806;28;20035;-80
2022/11/29 04:59:37;;;;;;;72.60;26.25;;;-4.00;99.90;;;;;;5052383;28;20025;-81
2022/11/29 05:02:09;;;;;;;73.97;27.20;;;-3.90;99.90;;;;;;5051826;28;20029;-81
2022/11/29 05:05:03;;;;;;;66.88;24.40;;;-3.90;99.90;;;;;;5053419;28;20029;-81
2022/11/29 05:07:33;;;;;;;85.97;28.15;;;-3.90;99.90;;;;;;5052306;28;20068;-82
2022/11/29 05:10:20;;;;;;;80.60;25.02;;;-3.90;99.90;;;;;;5051766;28;20025;-81
2022/11/29 05:13:02;;;;;;;69.53;24.10;;;-3.90;99.90;;;;;;5053323;28;20059;-81
2022/11/29 05:15:30;;;;;;;59.03;17.87;;;-3.90;99.90;;;;;;5053182;28;20025;-81
2022/11/29 05:18:06;;;;;;;58.78;23.10;;;-3.90;99.90;;;;;;5053267;28;20282;-81
2022/11/29 05:20:47;;;;;;;64.55;23.75;;;-3.90;99.90;;;;;;5051948;28;20024;-81
2022/11/29 05:23:35;;;;;;;71.43;24.02;;;-3.90;99.90;;;;;;5051982;28;20128;-81
2022/11/29 05:26:13;;;;;;;70.43;24.50;;;-4.00;99.90;;;;;;5051841;28;20029;-80
2022/11/29 05:29:00;;;;;;;56.08;23.10;;;-4.00;99.90;;;;;;5051863;28;20126;-80
2022/11/29 05:31:25;;;;;;;61.17;24.05;;;-4.00;99.90;;;;;;5051921;28;20029;-80
2022/11/29 05:34:43;;;;;;;51.92;22.23;;;-4.00;99.90;;;;;;5051753;28;20440;-81
2022/11/29 05:37:21;;;;;;;50.47;22.10;;;-4.00;99.90;;;;;;5043165;28;20095;-81
2022/11/29 05:40:19;;;;;;;44.08;20.55;;;-3.90;99.90;;;;;;5052950;28;20108;-81
2022/11/29 05:43:17;;;;;;;63.35;22.60;;;-3.80;99.90;;;;;;5051671;28;20104;-79
2022/11/29 05:45:56;;;;;;;60.03;23.73;;;-3.90;99.90;;;;;;5051712;28;20033;-81
2022/11/29 05:48:54;;;;;;;57.72;20.90;;;-3.80;99.90;;;;;;5051802;28;20143;-82
2022/11/29 05:51:28;;;;;;;64.38;23.45;;;-3.90;99.90;;;;;;5051754;28;20028;-80
2022/11/29 05:53:56;;;;;;;48.28;21.98;;;-3.80;99.90;;;;;;5051595;28;20021;-80
2022/11/29 05:56:49;;;;;;;55.60;21.48;;;-3.80;99.90;;;;;;5051488;28;20469;-81
2022/11/29 05:59:21;;;;;;;57.42;20.17;;;-3.80;99.90;;;;;;5052253;28;20028;-80
2022/11/29 06:01:52;;;;;;;59.95;19.42;;;-3.70;99.90;;;;;;5048746;28;20504;-81
2022/11/29 06:04:56;;;;;;;51.70;21.13;;;-3.70;99.90;;;;;;5031514;28;20051;-80
2022/11/29 06:07:40;;;;;;;65.88;19.75;;;-3.70;99.90;;;;;;5042805;28;20055;-81
2022/11/29 06:10:10;;;;;;;79.85;23.38;;;-3.70;99.90;;;;;;5037660;28;20482;-79
2022/11/29 06:12:36;;;;;;;62.83;19.27;;;-3.70;99.90;;;;;;5032119;28;20034;-82
2022/11/29 06:15:41;;;;;;;69.15;22.02;;;-3.60;99.90;;;;;;5032889;28;20020;-80
2022/11/29 06:18:41;;;;;;;64.88;19.80;;;-3.60;99.90;;;;;;5032223;28;20105;-79
2022/11/29 06:21:16;;;;;;;49.42;19.63;;;-3.60;99.90;;;;;;5030863;28;20117;-79
2022/11/29 06:24:18;;;;;;;53.65;19.63;;;-3.50;99.90;;;;;;5035704;28;20117;-80
2022/11/29 06:26:43;;;;;;;52.67;19.88;;;-3.50;99.90;;;;;;5045549;28;20060;-79
2022/11/29 06:29:32;;;;;;;65.70;21.90;;;-3.50;99.90;;;;;;5055222;28;20102;-80
2022/11/29 06:32:29;;;;;;;61.75;20.05;;;-3.60;99.90;;;;;;5049563;28;20017;-82
2022/11/29 06:35:02;;;;;;;55.45;22.55;;;-3.60;99.90;;;;;;5037652;28;20029;-80
2022/11/29 06:37:36;;;;;;;80.32;22.70;;;-3.60;99.90;;;;;;5038068;28;20038;-80
2022/11/29 06:40:03;;;;;;;61.17;22.88;;;-3.60;99.90;;;;;;5036170;28;20117;-80
2022/11/29 06:42:29;;;;;;;60.60;22.23;;;-3.50;99.90;;;;;;5033943;28;20104;-81
2022/11/29 06:44:55;;;;;;;64.47;24.52;;;-3.50;99.90;;;;;;5034661;28;20477;-81
2022/11/29 06:47:35;;;;;;;61.35;20.70;;;-3.40;99.90;;;;;;5053541;28;20025;-81
2022/11/29 06:50:29;;;;;;;80.78;24.05;;;-3.40;99.90;;;;;;5039420;28;20049;-79
2022/11/29 06:53:09;;;;;;;62.07;21.77;;;-3.40;99.90;;;;;;5043678;28;20030;-80
2022/11/29 06:55:55;;;;;;;88.20;24.45;;;-3.40;99.90;;;;;;5041649;28;20466;-80
2022/11/29 06:58:21;;;;;;;86.20;27.23;;;-3.40;99.90;;;;;;5054048;28;20029;-80
2022/11/29 07:00:57;;;;;;;73.20;22.85;;;-3.40;99.90;;;;;;5054122;28;20029;-81
2022/11/29 07:03:31;;;;;;;67.85;24.17;;;-3.30;99.90;;;;;;5043091;28;20024;-80
2022/11/29 07:05:57;;;;;;;66.88;23.50;;;-3.30;99.90;;;;;;5043222;28;20047;-80
2022/11/29 07:08:25;;;;;;;58.65;25.60;;;-3.30;99.90;;;;;;5053759;28;20570;-82
2022/11/29 07:10:54;;;;;;;68.88;24.98;;;-3.20;99.90;;;;;;5053311;28;20162;-80
2022/11/29 07:13:20;;;;;;;87.28;25.98;;;-3.20;99.90;;;;;;5053811;28;20108;-81
2022/11/29 07:16:04;;;;;;;78.53;22.58;;;-3.20;99.90;;;;;;5046353;28;20495;-80
2022/11/29 07:18:39;;;;;;;98.88;27.52;;;-3.20;99.90;;;;;;5034713;28;20406;-80
2022/11/29 07:21:20;;;;;;;71.53;24.60;;;-3.20;99.90;;;;;;5040923;28;20056;-80
2022/11/29 07:24:18;;;;;;;74.75;28.80;;;-3.30;99.90;;;;;;5039008;28;20391;-81
2022/11/29 07:26:56;;;;;;;95.97;25.92;;;-3.30;99.90;;;;;;5036320;28;20024;-81
2022/11/29 07:30:03;;;;;;;67.70;25.23;;;-3.20;99.90;;;;;;5033022;28;20029;-80
2022/11/29 07:32:33;;;;;;;77.18;28.80;;;-3.20;99.90;;;;;;5028157;28;20021;-81
2022/11/29 07:35:16;;;;;;;76.60;29.27;;;-3.10;99.90;;;;;;5044447;28;20108;-81
2022/11/29 07:37:41;;;;;;;73.65;28.88;;;-3.10;99.90;;;;;;5047543;28;20029;-81
2022/11/29 07:40:41;;;;;;;76.97;27.30;;;-3.00;99.90;;;;;;5052894;28;20025;-81
2022/11/29 07:43:15;;;;;;;68.78;27.35;;;-3.00;99.90;;;;;;5050769;28;20037;-81
2022/11/29 07:45:41;;;;;;;69.65;24.20;;;-3.00;99.90;;;;;;5045794;28;20064;-81
2022/11/29 07:48:09;;;;;;;68.22;26.95;;;-3.00;99.90;;;;;;5051507;28;20076;-81
2022/11/29 07:50:35;;;;;;;78.88;29.00;;;-2.90;99.90;;;;;;5052196;28;20093;-81
2022/11/29 07:53:01;;;;;;;80.97;28.58;;;-2.90;99.90;;;;;;5052298;28;20124;-81
2022/11/29 07:55:28;;;;;;;86.10;30.95;;;-2.90;99.90;;;;;;5052466;28;20525;-81
2022/11/29 07:57:54;;;;;;;69.10;28.38;;;-2.80;99.90;;;;;;5051543;28;20049;-81
2022/11/29 08:00:20;;;;;;;63.13;23.27;;;-2.80;99.90;;;;;;5051105;28;20051;-81
2022/11/29 08:02:47;;;;;;;68.68;27.60;;;-2.80;99.90;;;;;;5058967;28;20016;-81
2022/11/29 08:05:13;;;;;;;70.13;27.67;;;-2.80;99.90;;;;;;5073386;28;20048;-81
2022/11/29 08:07:40;;;;;;;87.30;29.20;;;-2.70;99.90;;;;;;5054719;28;20079;-81
2022/11/29 08:10:10;;;;;;;73.25;29.55;;;-2.70;99.90;;;;;;5051556;28;20055;-81
2022/11/29 08:12:40;;;;;;;62.97;25.58;;;-2.70;99.90;;;;;;5052985;28;20043;-81
2022/11/29 08:15:07;;;;;;;58.78;24.23;;;-2.70;99.90;;;;;;5053252;28;20013;-81
2022/11/29 08:17:33;;;;;;;66.97;25.33;;;-2.60;99.90;;;;;;5054396;28;20053;-81
2022/11/29 08:19:58;;;;;;;73.07;26.67;;;-2.60;99.90;;;;;;5053147;28;20032;-81
2022/11/29 08:22:24;;;;;;;74.05;28.48;;;-2.60;99.90;;;;;;5052985;28;20024;-81
2022/11/29 08:24:50;;;;;;;78.63;29.13;;;-2.60;99.90;;;;;;5053157;28;20028;-81
2022/11/29 08:27:15;;;;;;;61.05;22.33;;;-2.60;99.90;;;;;;5052957;28;20040;-81
2022/11/29 08:29:41;;;;;;;76.80;26.83;;;-2.70;99.90;;;;;;5052950;28;20040;-81
2022/11/29 08:32:07;;;;;;;86.35;25.40;;;-2.70;99.90;;;;;;5052803;28;20021;-81
2022/11/29 08:34:33;;;;;;;73.18;25.42;;;-2.70;99.90;;;;;;5053973;28;20017;-81
2022/11/29 08:36:59;;;;;;;61.88;24.92;;;-2.60;99.90;;;;;;5052811;28;20413;-81
2022/11/29 08:39:24;;;;;;;75.80;26.77;;;-2.60;99.90;;;;;;5054020;28;20035;-80
2022/11/29 08:41:50;;;;;;;112.20;28.48;;;-2.60;99.90;;;;;;5052767;28;20390;-81
2022/11/29 08:44:15;;;;;;;85.43;29.90;;;-2.60;99.90;;;;;;5052416;28;20069;-80
2022/11/29 08:49:25;;;;;;;85.60;29.45;;;-2.60;99.90;;;;;;5054239;28;20040;-81
2022/11/29 08:53:40;;;;;;;92.28;31.80;;;-2.50;99.90;;;;;;5052565;28;20032;-81
2022/11/29 08:54:37;;;;;;;81.57;30.42;;;-2.50;99.90;;;;;;5053619;28;20053;-81
2022/11/29 08:57:02;;;;;;;87.43;31.52;;;-2.40;99.90;;;;;;5052458;28;20021;-81
2022/11/29 08:59:28;;;;;;;69.70;28.75;;;-2.40;99.90;;;;;;5052314;28;20021;-81
2022/11/29 09:01:54;;;;;;;65.78;28.15;;;-2.30;99.90;;;;;;5053535;28;20025;-81
2022/11/29 09:04:19;;;;;;;68.20;25.08;;;-2.30;99.90;;;;;;5052348;28;20028;-81
2022/11/29 09:06:48;;;;;;;69.90;28.58;;;-2.30;99.90;;;;;;5052170;28;20017;-81
2022/11/29 09:09:14;;;;;;;79.70;29.67;;;-2.30;99.90;;;;;;5053466;28;20112;-81
2022/11/29 09:11:40;;;;;;;73.93;27.77;;;-2.30;99.90;;;;;;5053467;28;20066;-81
2022/11/29 09:14:07;;;;;;;74.18;28.63;;;-2.20;99.90;;;;;;5052107;28;20120;-81
2022/11/29 09:16:35;;;;;;;84.18;30.20;;;-2.20;99.90;;;;;;5052119;28;20497;-81
2022/11/29 09:19:01;;;;;;;86.95;28.50;;;-2.20;99.90;;;;;;5052044;28;20066;-81
2022/11/29 09:21:29;;;;;;;76.95;27.23;;;-2.20;99.90;;;;;;5053227;28;20111;-81
2022/11/29 09:23:58;;;;;;;74.47;29.55;;;-2.30;99.90;;;;;;5051902;28;20029;-81
2022/11/29 09:26:29;;;;;;;65.43;25.60;;;-2.30;99.90;;;;;;5053222;28;20013;-81
2022/11/29 09:28:56;;;;;;;64.13;24.60;;;-2.30;99.90;;;;;;5053262;28;20052;-81
2022/11/29 09:31:22;;;;;;;80.93;27.60;;;-2.30;99.90;;;;;;5053186;28;20492;-81
2022/11/29 09:33:48;;;;;;;82.95;25.98;;;-2.30;99.90;;;;;;5051889;28;20112;-81
2022/11/29 09:36:14;;;;;;;72.95;29.75;;;-2.30;99.90;;;;;;5053130;28;20028;-81
2022/11/29 09:38:39;;;;;;;75.00;27.70;;;-2.30;99.90;;;;;;5052943;28;20029;-81
2022/11/29 09:41:27;;;;;;;63.70;24.63;;;-2.30;99.90;;;;;;5051889;28;20029;-81
2022/11/29 09:44:19;;;;;;;72.10;27.50;;;-2.30;99.90;;;;;;5051640;28;20076;-81
2022/11/29 09:47:25;;;;;;;76.50;29.85;;;-2.40;99.90;;;;;;5051819;28;20095;-81
2022/11/29 09:49:54;;;;;;;69.72;29.25;;;-2.30;99.90;;;;;;5051797;28;20028;-81
2022/11/29 09:52:23;;;;;;;84.38;29.73;;;-2.30;99.90;;;;;;5052980;28;20028;-81
2022/11/29 09:55:32;;;;;;;80.65;28.33;;;-2.20;99.90;;;;;;5051672;28;20032;-81
2022/11/29 09:57:59;;;;;;;84.00;31.75;;;-2.30;99.90;;;;;;5055510;28;20025;-81
2022/11/29 10:00:27;;;;;;;74.57;30.25;;;-2.20;99.90;;;;;;5055809;28;20547;-81
2022/11/29 10:02:59;;;;;;;85.60;33.55;;;-2.10;99.90;;;;;;5057011;28;20033;-81
2022/11/29 10:05:49;;;;;;;94.00;36.58;;;-2.00;99.90;;;;;;5055740;28;20021;-81
2022/11/29 10:08:24;;;;;;;60.50;25.83;;;-1.80;99.90;;;;;;5055475;28;20040;-81
2022/11/29 10:10:56;;;;;;;72.60;28.48;;;-1.70;99.90;;;;;;5055449;28;20029;-81
2022/11/29 10:13:28;;;;;;;55.13;25.25;;;-1.70;99.90;;;;;;5056721;28;20501;-81
2022/11/29 10:15:58;;;;;;;55.17;22.20;;;-1.70;99.90;;;;;;5056868;28;20044;-81
2022/11/29 10:18:50;;;;;;;54.85;23.08;;;-1.70;99.90;;;;;;5055604;28;20048;-81
2022/11/29 10:21:26;;;;;;;74.93;25.88;;;-1.70;99.90;;;;;;5056893;28;20477;-81
2022/11/29 10:23:56;;;;;;;58.25;23.85;;;-1.70;99.90;;;;;;5055312;28;20537;-81
2022/11/29 10:26:23;;;;;;;59.97;25.75;;;-1.70;99.90;;;;;;5056553;28;20120;-81
2022/11/29 10:28:49;;;;;;;52.47;23.77;;;-1.60;99.90;;;;;;5056490;28;20112;-81
2022/11/29 10:31:15;;;;;;;53.42;24.33;;;-1.60;99.90;;;;;;5056403;28;20462;-81
2022/11/29 10:33:42;;;;;;;72.53;28.98;;;-1.50;99.90;;;;;;5056709;28;20378;-81
2022/11/29 10:36:21;;;;;;;59.83;24.25;;;-1.60;99.90;;;;;;5055235;28;20076;-81
2022/11/29 10:38:47;;;;;;;59.95;25.10;;;-1.50;99.90;;;;;;5056280;28;20032;-81
2022/11/29 10:41:19;;;;;;;48.00;24.00;;;-1.50;99.90;;;;;;5055139;28;20024;-81
2022/11/29 10:43:46;;;;;;;65.73;26.57;;;-1.50;99.90;;;;;;5055985;28;20537;-81
2022/11/29 10:46:24;;;;;;;62.38;23.45;;;-1.50;99.90;;;;;;5056290;28;20760;-81
2022/11/29 10:48:49;;;;;;;52.90;25.15;;;-1.40;99.90;;;;;;5056247;28;20108;-81
2022/11/29 10:51:16;;;;;;;58.03;26.13;;;-1.40;99.90;;;;;;5054966;28;20532;-81
2022/11/29 10:53:45;;;;;;;62.45;24.95;;;-1.40;99.90;;;;;;5054834;28;20025;-81
2022/11/29 10:56:28;;;;;;;58.78;26.35;;;-1.30;99.90;;;;;;5055772;28;20528;-81
2022/11/29 10:59:02;;;;;;;54.60;23.00;;;-1.40;99.90;;;;;;5056052;28;20029;-81
2022/11/29 11:01:29;;;;;;;55.03;24.83;;;-1.30;99.90;;;;;;5054550;28;20029;-81
2022/11/29 11:03:57;;;;;;;56.28;25.98;;;-1.30;99.90;;;;;;5054741;28;20021;-81
2022/11/29 11:06:41;;;;;;;72.55;30.35;;;-1.30;99.90;;;;;;5054321;28;20056;-81
2022/11/29 11:09:18;;;;;;;68.22;27.77;;;-1.30;99.90;;;;;;5053881;28;20380;-81
2022/11/29 11:11:51;;;;;;;76.13;30.90;;;-1.30;99.90;;;;;;5054448;28;20025;-81
2022/11/29 11:14:37;;;;;;;70.97;26.63;;;-1.30;99.90;;;;;;5054324;28;20112;-81
2022/11/29 11:17:31;;;;;;;80.07;32.42;;;-1.30;99.90;;;;;;5054460;28;20031;-82
2022/11/29 11:19:57;;;;;;;86.20;36.05;;;-1.30;99.90;;;;;;5054428;28;20059;-81
2022/11/29 11:22:24;;;;;;;92.65;36.42;;;-1.30;99.90;;;;;;5054285;28;20049;-81
2022/11/29 11:25:33;;;;;;;88.22;34.40;;;-1.20;99.90;;;;;;5054393;28;20075;-82
2022/11/29 11:28:21;;;;;;;70.63;30.85;;;-1.10;99.90;;;;;;5043162;28;20134;-80
2022/11/29 11:30:54;;;;;;;68.53;29.13;;;-1.10;99.90;;;;;;5044106;28;20063;-81
2022/11/29 11:33:19;;;;;;;;;;;-1.10;99.90;;;;;;5055735;28;20029;-81
2022/11/29 11:36:03;;;;;;;78.97;28.67;;;-1.10;99.90;;;;;;5061700;28;20255;-81
2022/11/29 11:38:29;;;;;;;82.18;31.20;;;-1.20;99.90;;;;;;5046460;28;20435;-81
2022/11/29 11:42:35;;;;;;;89.70;33.72;;;-1.30;99.90;;;;;;5049767;28;20038;-80
2022/11/29 11:44:40;;;;;;;87.10;34.15;;;-1.20;99.90;;;;;;5044584;28;20080;-81
2022/11/29 11:47:14;;;;;;;73.28;31.30;;;-1.30;99.90;;;;;;5055681;28;20079;-81
2022/11/29 11:50:03;;;;;;;88.32;35.97;;;-1.20;99.90;;;;;;5053034;28;20452;-81
2022/11/29 11:52:44;;;;;;;86.68;35.92;;;-1.30;99.90;;;;;;5072974;28;20101;-82
2022/11/29 11:55:32;;;;;;;92.53;34.35;;;-1.20;99.90;;;;;;5072873;28;20466;-81
2022/11/29 11:57:57;;;;;;;69.05;32.20;;;-1.20;99.90;;;;;;5072690;28;20039;-81
2022/11/29 12:00:43;;;;;;;65.70;28.10;;;-1.10;99.90;;;;;;5071314;28;20029;-81
2022/11/29 12:03:39;;;;;;;73.20;28.88;;;-1.10;99.90;;;;;;5068312;28;20474;-81
2022/11/29 12:06:14;;;;;;;65.20;26.60;;;-1.00;99.90;;;;;;5061295;28;20086;-81
2022/11/29 12:08:40;;;;;;;62.97;27.67;;;-0.90;99.90;;;;;;5070445;28;20060;-82
2022/11/29 12:11:11;;;;;;;60.38;28.08;;;-0.80;99.90;;;;;;5062170;28;20029;-82
2022/11/29 12:13:44;;;;;;;51.35;22.67;;;-0.80;99.90;;;;;;5059292;28;20025;-81
2022/11/29 12:16:17;;;;;;;56.08;25.27;;;-0.70;99.90;;;;;;5038214;28;20040;-81
2022/11/29 12:18:48;;;;;;;51.88;24.38;;;-0.70;99.90;;;;;;5066065;28;20020;-82
2022/11/29 12:21:20;;;;;;;53.55;26.77;;;-0.70;99.90;;;;;;5070781;28;20040;-82
2022/11/29 12:23:55;;;;;;;57.33;26.45;;;-0.60;99.90;;;;;;5071882;28;20050;-81
2022/11/29 12:26:37;;;;;;;55.72;24.77;;;-0.50;99.90;;;;;;5071570;28;20549;-81
2022/11/29 12:29:15;;;;;;;60.80;26.47;;;-0.50;99.90;;;;;;5072679;28;21074;-82
2022/11/29 12:32:07;;;;;;;61.88;24.80;;;-0.50;99.90;;;;;;5072375;28;20029;-79
2022/11/29 12:34:48;;;;;;;55.28;24.58;;;-0.60;99.90;;;;;;5071444;28;20466;-82
2022/11/29 12:37:41;;;;;;;51.40;22.05;;;-0.70;99.90;;;;;;5072917;28;20036;-82
2022/11/29 12:40:16;;;;;;;55.17;24.80;;;-0.70;99.90;;;;;;5071191;28;20024;-82
2022/11/29 12:43:09;;;;;;;51.65;24.02;;;-0.70;99.90;;;;;;5071514;28;20040;-82
2022/11/29 12:46:13;;;;;;;52.05;23.45;;;-0.80;99.90;;;;;;5068479;28;20043;-82
2022/11/29 12:49:07;;;;;;;58.75;24.80;;;-0.80;99.90;;;;;;5062864;28;20051;-83
2022/11/29 12:52:14;;;;;;;55.58;23.17;;;-0.80;99.90;;;;;;5063546;28;20099;-81
2022/11/29 12:54:40;;;;;;;58.38;24.73;;;-0.90;99.90;;;;;;4980630;28;20042;-81
2022/11/29 12:57:21;;;;;;;50.80;22.88;;;-0.90;99.90;;;;;;5037617;28;20089;-81
2022/11/29 13:00:08;;;;;;;69.50;27.92;;;-0.90;99.90;;;;;;5070930;28;20031;-80
2022/11/29 13:02:52;;;;;;;68.10;28.77;;;-0.80;99.90;;;;;;5062870;28;20083;-81
2022/11/29 13:05:40;;;;;;;80.68;34.78;;;-0.80;99.90;;;;;;5071158;28;20103;-81
2022/11/29 13:08:58;;;;;;;80.63;34.15;;;-0.80;99.90;;;;;;5072437;28;20036;-81
2022/11/29 13:11:31;;;;;;;84.32;34.65;;;-0.80;99.90;;;;;;5070530;28;20060;-81
2022/11/29 13:14:12;;;;;;;78.90;34.65;;;-0.90;99.90;;;;;;5051824;28;20029;-81
2022/11/29 13:16:44;;;;;;;73.40;32.28;;;-1.00;99.90;;;;;;5044568;28;20115;-82
2022/11/29 13:19:29;;;;;;;74.07;33.58;;;-1.10;99.90;;;;;;5068605;28;20032;-82